TAM3603 SBPA-SBGL
Flight info
| Callsign | TAM3603 |
|---|---|
| Flight time | 1h 34m |
| Altitude | 35000 |
| Route | UBNUT UN857 AKNUB |
| Aircraft | A320/M-SDE2FGHIM1RWXYZ/LB1 |
Departure
| Time | 2026-04-29 19:19 |
|---|---|
| Airport | Porto Alegre-Salgado Filho International Airport (SBPA) |
Arrival
| Time | 2026-04-29 20:53 |
|---|---|
| Airport | Rio Galeão – Tom Jobim International Airport (SBGL) |
| Time | Latitude | Longitude | Altitude | Speed | Heading |
|---|---|---|---|---|---|
| 2026-04-29 18:29 | -29.99133 | -51.17524 | 19 ft | 0 kts | 0° |
| 2026-04-29 19:11 | -29.99142 | -51.17525 | 20 ft | 3 kts | 0° |
| 2026-04-29 19:11 | -29.99161 | -51.17525 | 23 ft | 3 kts | 358° |
| 2026-04-29 19:11 | -29.99172 | -51.17525 | 23 ft | 1 kts | 324° |
| 2026-04-29 19:11 | -29.99178 | -51.17518 | 22 ft | 1 kts | 279° |
| 2026-04-29 19:12 | -29.99179 | -51.17508 | 22 ft | 1 kts | 272° |
| 2026-04-29 19:12 | -29.99179 | -51.17501 | 21 ft | 0 kts | 272° |
| 2026-04-29 19:15 | -29.99178 | -51.17551 | 19 ft | 11 kts | 272° |
| 2026-04-29 19:15 | -29.99171 | -51.17632 | 19 ft | 11 kts | 272° |
| 2026-04-29 19:15 | -29.99167 | -51.17730 | 19 ft | 14 kts | 272° |
| 2026-04-29 19:15 | -29.99153 | -51.17851 | 19 ft | 15 kts | 279° |
| 2026-04-29 19:16 | -29.99107 | -51.17954 | 19 ft | 14 kts | 299° |
| 2026-04-29 19:16 | -29.99138 | -51.18002 | 19 ft | 9 kts | 207° |
| 2026-04-29 19:16 | -29.99190 | -51.18035 | 19 ft | 9 kts | 217° |
| 2026-04-29 19:16 | -29.99227 | -51.18104 | 19 ft | 13 kts | 243° |
| 2026-04-29 19:17 | -29.99284 | -51.18191 | 19 ft | 14 kts | 205° |
| 2026-04-29 19:17 | -29.99381 | -51.18247 | 20 ft | 17 kts | 207° |
| 2026-04-29 19:17 | -29.99440 | -51.18269 | 20 ft | 5 kts | 140° |
| 2026-04-29 19:17 | -29.99442 | -51.18239 | 21 ft | 0 kts | 92° |
| 2026-04-29 19:18 | -29.99442 | -51.18229 | 21 ft | 14 kts | 92° |
| 2026-04-29 19:18 | -29.99446 | -51.17986 | 21 ft | 73 kts | 91° |
| 2026-04-29 19:18 | -29.99469 | -51.16749 | 22 ft | 156 kts | 91° |
| 2026-04-29 19:18 | -29.99499 | -51.15459 | 556 ft | 163 kts | 91° |
| 2026-04-29 19:19 | -29.99541 | -51.14076 | 957 ft | 186 kts | 92° |
| 2026-04-29 19:19 | -29.99583 | -51.12462 | 1201 ft | 219 kts | 92° |
| 2026-04-29 19:19 | -29.99617 | -51.10593 | 1620 ft | 246 kts | 91° |
| 2026-04-29 19:19 | -29.99647 | -51.08569 | 2393 ft | 257 kts | 90° |
| 2026-04-29 19:20 | -29.99678 | -51.06472 | 3284 ft | 265 kts | 90° |
| 2026-04-29 19:20 | -29.99711 | -51.04319 | 4185 ft | 272 kts | 90° |
| 2026-04-29 19:20 | -29.99744 | -51.02104 | 5095 ft | 279 kts | 90° |
| 2026-04-29 19:20 | -29.99778 | -50.99834 | 6003 ft | 285 kts | 91° |
| 2026-04-29 19:21 | -29.99816 | -50.97514 | 6862 ft | 291 kts | 91° |
| 2026-04-29 19:21 | -29.99850 | -50.95154 | 7697 ft | 297 kts | 88° |
| 2026-04-29 19:21 | -29.99401 | -50.92837 | 8499 ft | 299 kts | 60° |
| 2026-04-29 19:21 | -29.98080 | -50.91020 | 9319 ft | 297 kts | 31° |
| 2026-04-29 19:22 | -29.96210 | -50.90089 | 9842 ft | 292 kts | 5° |
| 2026-04-29 19:22 | -29.94205 | -50.89816 | 9989 ft | 292 kts | 5° |
| 2026-04-29 19:22 | -29.92151 | -50.89110 | 10019 ft | 323 kts | 22° |
| 2026-04-29 19:22 | -29.90188 | -50.87779 | 10018 ft | 326 kts | 28° |
| 2026-04-29 19:23 | -29.88295 | -50.86364 | 10023 ft | 329 kts | 30° |
| 2026-04-29 19:23 | -29.86392 | -50.84895 | 10024 ft | 330 kts | 30° |
| 2026-04-29 19:23 | -29.84501 | -50.83413 | 10026 ft | 329 kts | 31° |
| 2026-04-29 19:23 | -29.82619 | -50.81938 | 10033 ft | 328 kts | 30° |
| 2026-04-29 19:24 | -29.80733 | -50.80476 | 10032 ft | 328 kts | 30° |
| 2026-04-29 19:24 | -29.78841 | -50.79018 | 10205 ft | 331 kts | 30° |
| 2026-04-29 19:24 | -29.76902 | -50.77524 | 10938 ft | 338 kts | 30° |
| 2026-04-29 19:24 | -29.74933 | -50.76005 | 11702 ft | 343 kts | 30° |
| 2026-04-29 19:25 | -29.72934 | -50.74461 | 12492 ft | 348 kts | 30° |
| 2026-04-29 19:25 | -29.70906 | -50.72892 | 13257 ft | 354 kts | 31° |
| 2026-04-29 19:25 | -29.68849 | -50.71301 | 13999 ft | 359 kts | 31° |
| 2026-04-29 19:25 | -29.66762 | -50.69690 | 14682 ft | 363 kts | 30° |
| 2026-04-29 19:26 | -29.64653 | -50.68063 | 15381 ft | 367 kts | 30° |
| 2026-04-29 19:26 | -29.62517 | -50.66418 | 16062 ft | 371 kts | 30° |
| 2026-04-29 19:26 | -29.60361 | -50.64759 | 16688 ft | 376 kts | 29° |
| 2026-04-29 19:26 | -29.58181 | -50.63080 | 17405 ft | 378 kts | 29° |
| 2026-04-29 19:27 | -29.55986 | -50.61391 | 18095 ft | 382 kts | 28° |
| 2026-04-29 19:27 | -29.53763 | -50.59685 | 18688 ft | 386 kts | 28° |
| 2026-04-29 19:27 | -29.51516 | -50.57959 | 19253 ft | 390 kts | 28° |
| 2026-04-29 19:27 | -29.49281 | -50.56244 | 19806 ft | 395 kts | 28° |
| 2026-04-29 19:28 | -29.47065 | -50.54317 | 20303 ft | 404 kts | 36° |
| 2026-04-29 19:28 | -29.44934 | -50.52186 | 20879 ft | 408 kts | 36° |
| 2026-04-29 19:28 | -29.42781 | -50.50040 | 21438 ft | 412 kts | 36° |
| 2026-04-29 19:28 | -29.40599 | -50.47875 | 21999 ft | 417 kts | 36° |
| 2026-04-29 19:29 | -29.38392 | -50.45692 | 22561 ft | 421 kts | 36° |
| 2026-04-29 19:29 | -29.36168 | -50.43494 | 23113 ft | 425 kts | 36° |
| 2026-04-29 19:29 | -29.33912 | -50.41265 | 23660 ft | 430 kts | 36° |
| 2026-04-29 19:29 | -29.31637 | -50.39015 | 24128 ft | 433 kts | 36° |
| 2026-04-29 19:30 | -29.29349 | -50.36754 | 24605 ft | 436 kts | 36° |
| 2026-04-29 19:30 | -29.27024 | -50.34515 | 25092 ft | 437 kts | 33° |
| 2026-04-29 19:30 | -29.24627 | -50.32367 | 25562 ft | 438 kts | 31° |
| 2026-04-29 19:30 | -29.22170 | -50.30279 | 26046 ft | 439 kts | 30° |
| 2026-04-29 19:31 | -29.19690 | -50.28227 | 26499 ft | 441 kts | 30° |
| 2026-04-29 19:31 | -29.17190 | -50.26170 | 26958 ft | 444 kts | 30° |
| 2026-04-29 19:31 | -29.14688 | -50.24094 | 27396 ft | 446 kts | 30° |
| 2026-04-29 19:31 | -29.12180 | -50.21986 | 27828 ft | 448 kts | 30° |
| 2026-04-29 19:32 | -29.09666 | -50.19853 | 28257 ft | 451 kts | 31° |
| 2026-04-29 19:32 | -29.07146 | -50.17699 | 28675 ft | 453 kts | 31° |
| 2026-04-29 19:32 | -29.04617 | -50.15532 | 29086 ft | 456 kts | 31° |
| 2026-04-29 19:32 | -29.02073 | -50.13356 | 29494 ft | 458 kts | 30° |
| 2026-04-29 19:33 | -28.99511 | -50.11169 | 29878 ft | 460 kts | 30° |
| 2026-04-29 19:33 | -28.96939 | -50.08979 | 30236 ft | 462 kts | 30° |
| 2026-04-29 19:33 | -28.94355 | -50.06786 | 30548 ft | 464 kts | 30° |
| 2026-04-29 19:33 | -28.91753 | -50.04584 | 30837 ft | 466 kts | 29° |
| 2026-04-29 19:34 | -28.89173 | -50.02402 | 31117 ft | 469 kts | 29° |
| 2026-04-29 19:34 | -28.86514 | -50.00153 | 31387 ft | 471 kts | 29° |
| 2026-04-29 19:34 | -28.83914 | -49.97953 | 31753 ft | 471 kts | 28° |
| 2026-04-29 19:34 | -28.81250 | -49.95698 | 32175 ft | 470 kts | 28° |
| 2026-04-29 19:35 | -28.78656 | -49.93502 | 32500 ft | 470 kts | 28° |
| 2026-04-29 19:35 | -28.76034 | -49.91282 | 32873 ft | 470 kts | 27° |
| 2026-04-29 19:35 | -28.73409 | -49.89064 | 33278 ft | 469 kts | 27° |
| 2026-04-29 19:35 | -28.70856 | -49.86720 | 33688 ft | 478 kts | 35° |
| 2026-04-29 19:36 | -28.68619 | -49.83847 | 34051 ft | 491 kts | 46° |
| 2026-04-29 19:36 | -28.66803 | -49.80518 | 34346 ft | 499 kts | 53° |
| 2026-04-29 19:36 | -28.65087 | -49.77072 | 34668 ft | 499 kts | 53° |
| 2026-04-29 19:36 | -28.63377 | -49.73640 | 35011 ft | 498 kts | 52° |
| 2026-04-29 19:37 | -28.61663 | -49.70214 | 35323 ft | 497 kts | 53° |
| 2026-04-29 19:37 | -28.60529 | -49.67956 | 35526 ft | 497 kts | 53° |
| 2026-04-29 19:37 | -28.58231 | -49.63401 | 35917 ft | 496 kts | 53° |
| 2026-04-29 19:37 | -28.56508 | -49.60001 | 36166 ft | 496 kts | 53° |
| 2026-04-29 19:38 | -28.54786 | -49.56607 | 36440 ft | 495 kts | 52° |
| 2026-04-29 19:38 | -28.53068 | -49.53217 | 36736 ft | 495 kts | 53° |
| 2026-04-29 19:38 | -28.51355 | -49.49828 | 36981 ft | 494 kts | 53° |
| 2026-04-29 19:39 | -28.47959 | -49.43095 | 37034 ft | 489 kts | 52° |
| 2026-04-29 19:39 | -28.44572 | -49.36410 | 37037 ft | 487 kts | 52° |
| 2026-04-29 19:40 | -28.41187 | -49.29748 | 37034 ft | 486 kts | 52° |
| 2026-04-29 19:40 | -28.37806 | -49.23104 | 37032 ft | 490 kts | 52° |
| 2026-04-29 19:41 | -28.34364 | -49.16355 | 37027 ft | 491 kts | 52° |
| 2026-04-29 19:41 | -28.30954 | -49.09682 | 37023 ft | 491 kts | 52° |
| 2026-04-29 19:42 | -28.27393 | -49.03107 | 37023 ft | 482 kts | 43° |
| 2026-04-29 19:42 | -28.23010 | -48.97472 | 37021 ft | 476 kts | 39° |
| 2026-04-29 19:43 | -28.18561 | -48.91908 | 37017 ft | 476 kts | 39° |
| 2026-04-29 19:43 | -28.14111 | -48.86353 | 37009 ft | 476 kts | 39° |
| 2026-04-29 19:44 | -28.09671 | -48.80792 | 37004 ft | 476 kts | 39° |
| 2026-04-29 19:44 | -28.05220 | -48.75226 | 37015 ft | 476 kts | 39° |
| 2026-04-29 19:45 | -28.00801 | -48.69713 | 37016 ft | 475 kts | 39° |
| 2026-04-29 19:45 | -27.96358 | -48.64175 | 37012 ft | 475 kts | 39° |
| 2026-04-29 19:46 | -27.91919 | -48.58655 | 36996 ft | 474 kts | 39° |
| 2026-04-29 19:46 | -27.87477 | -48.53138 | 36996 ft | 474 kts | 38° |
| 2026-04-29 19:47 | -27.83044 | -48.47638 | 36996 ft | 473 kts | 38° |
| 2026-04-29 19:47 | -27.78614 | -48.42143 | 36993 ft | 472 kts | 38° |
| 2026-04-29 19:48 | -27.74193 | -48.36673 | 36987 ft | 472 kts | 38° |
| 2026-04-29 19:48 | -27.69772 | -48.31206 | 36994 ft | 471 kts | 38° |
| 2026-04-29 19:49 | -27.65351 | -48.25748 | 36997 ft | 471 kts | 37° |
| 2026-04-29 19:49 | -27.60937 | -48.20294 | 37001 ft | 471 kts | 37° |
| 2026-04-29 19:50 | -27.56507 | -48.14847 | 37005 ft | 471 kts | 37° |
| 2026-04-29 19:50 | -27.52109 | -48.09445 | 36998 ft | 471 kts | 37° |
| 2026-04-29 19:51 | -27.47678 | -48.03997 | 36994 ft | 471 kts | 37° |
| 2026-04-29 19:51 | -27.43250 | -47.98552 | 36995 ft | 471 kts | 36° |
| 2026-04-29 19:52 | -27.38808 | -47.93121 | 36994 ft | 471 kts | 36° |
| 2026-04-29 19:52 | -27.34359 | -47.87699 | 36991 ft | 471 kts | 36° |
| 2026-04-29 19:53 | -27.29894 | -47.82301 | 36993 ft | 471 kts | 36° |
| 2026-04-29 19:53 | -27.25446 | -47.76936 | 36999 ft | 472 kts | 36° |
| 2026-04-29 19:54 | -27.18741 | -47.68831 | 37001 ft | 472 kts | 36° |
| 2026-04-29 19:54 | -27.14277 | -47.63439 | 36996 ft | 471 kts | 36° |
| 2026-04-29 19:55 | -27.09812 | -47.58052 | 36995 ft | 470 kts | 36° |
| 2026-04-29 19:55 | -27.05349 | -47.52688 | 37002 ft | 470 kts | 36° |
| 2026-04-29 19:56 | -27.00893 | -47.47328 | 36999 ft | 470 kts | 36° |
| 2026-04-29 19:56 | -26.96435 | -47.41975 | 36993 ft | 470 kts | 36° |
| 2026-04-29 19:57 | -26.92727 | -47.37532 | 36997 ft | 470 kts | 36° |
| 2026-04-29 19:57 | -26.87534 | -47.31312 | 37002 ft | 470 kts | 36° |
| 2026-04-29 19:58 | -26.83067 | -47.25982 | 37003 ft | 470 kts | 36° |
| 2026-04-29 19:58 | -26.78598 | -47.20648 | 37006 ft | 470 kts | 36° |
| 2026-04-29 19:59 | -26.74134 | -47.15304 | 37005 ft | 470 kts | 36° |
| 2026-04-29 19:59 | -26.69657 | -47.09977 | 36996 ft | 470 kts | 36° |
| 2026-04-29 20:00 | -26.65169 | -47.04659 | 36989 ft | 470 kts | 35° |
| 2026-04-29 20:00 | -26.60672 | -46.99346 | 36988 ft | 471 kts | 35° |
| 2026-04-29 20:01 | -26.56927 | -46.94918 | 36989 ft | 471 kts | 35° |
| 2026-04-29 20:01 | -26.52405 | -46.89604 | 36985 ft | 472 kts | 35° |
| 2026-04-29 20:02 | -26.47875 | -46.84295 | 36983 ft | 473 kts | 35° |
| 2026-04-29 20:02 | -26.44101 | -46.79871 | 36984 ft | 473 kts | 35° |
| 2026-04-29 20:03 | -26.38782 | -46.73644 | 36981 ft | 475 kts | 35° |
| 2026-04-29 20:03 | -26.34222 | -46.68294 | 36987 ft | 476 kts | 35° |
| 2026-04-29 20:04 | -26.29685 | -46.62987 | 36987 ft | 476 kts | 35° |
| 2026-04-29 20:04 | -26.25105 | -46.57642 | 36991 ft | 476 kts | 35° |
| 2026-04-29 20:05 | -26.20527 | -46.52314 | 36994 ft | 476 kts | 35° |
| 2026-04-29 20:05 | -26.15952 | -46.46985 | 37003 ft | 476 kts | 36° |
| 2026-04-29 20:06 | -26.11373 | -46.41657 | 37002 ft | 476 kts | 36° |
| 2026-04-29 20:06 | -26.06804 | -46.36341 | 36999 ft | 475 kts | 36° |
| 2026-04-29 20:07 | -26.02222 | -46.31023 | 37003 ft | 475 kts | 36° |
| 2026-04-29 20:07 | -25.97674 | -46.25757 | 37006 ft | 475 kts | 36° |
| 2026-04-29 20:08 | -25.93843 | -46.21322 | 37006 ft | 474 kts | 36° |
| 2026-04-29 20:08 | -25.88535 | -46.15182 | 37011 ft | 474 kts | 36° |
| 2026-04-29 20:09 | -25.83957 | -46.09899 | 37007 ft | 474 kts | 36° |
| 2026-04-29 20:09 | -25.79374 | -46.04618 | 37001 ft | 475 kts | 36° |
| 2026-04-29 20:10 | -25.74793 | -45.99344 | 36997 ft | 475 kts | 36° |
| 2026-04-29 20:10 | -25.70208 | -45.94058 | 37000 ft | 475 kts | 36° |
| 2026-04-29 20:11 | -25.65620 | -45.88791 | 37007 ft | 475 kts | 36° |
| 2026-04-29 20:11 | -25.61022 | -45.83526 | 37000 ft | 475 kts | 37° |
| 2026-04-29 20:12 | -25.56424 | -45.78247 | 37003 ft | 476 kts | 37° |
| 2026-04-29 20:12 | -25.51832 | -45.72977 | 37004 ft | 475 kts | 37° |
| 2026-04-29 20:13 | -25.47234 | -45.67716 | 37007 ft | 475 kts | 37° |
| 2026-04-29 20:13 | -25.42639 | -45.62469 | 37004 ft | 475 kts | 37° |
| 2026-04-29 20:14 | -25.38037 | -45.57231 | 37003 ft | 475 kts | 37° |
| 2026-04-29 20:14 | -25.33431 | -45.51991 | 37005 ft | 475 kts | 37° |
| 2026-04-29 20:15 | -25.28825 | -45.46754 | 37002 ft | 475 kts | 37° |
| 2026-04-29 20:15 | -25.24259 | -45.41558 | 37000 ft | 475 kts | 37° |
| 2026-04-29 20:16 | -25.19658 | -45.36325 | 37008 ft | 474 kts | 37° |
| 2026-04-29 20:16 | -25.15054 | -45.31107 | 37007 ft | 474 kts | 37° |
| 2026-04-29 20:17 | -25.10444 | -45.25892 | 37001 ft | 474 kts | 37° |
| 2026-04-29 20:17 | -25.05836 | -45.20679 | 36995 ft | 475 kts | 37° |
| 2026-04-29 20:18 | -25.01221 | -45.15458 | 36993 ft | 475 kts | 37° |
| 2026-04-29 20:18 | -24.96608 | -45.10243 | 36995 ft | 475 kts | 37° |
| 2026-04-29 20:19 | -24.91988 | -45.05030 | 36994 ft | 475 kts | 37° |
| 2026-04-29 20:19 | -24.87371 | -44.99820 | 36991 ft | 475 kts | 37° |
| 2026-04-29 20:20 | -24.82742 | -44.94614 | 37000 ft | 475 kts | 37° |
| 2026-04-29 20:20 | -24.78134 | -44.89453 | 37007 ft | 475 kts | 37° |
| 2026-04-29 20:21 | -24.73497 | -44.84258 | 37009 ft | 475 kts | 37° |
| 2026-04-29 20:21 | -24.68874 | -44.79071 | 37015 ft | 475 kts | 37° |
| 2026-04-29 20:22 | -24.64252 | -44.73883 | 37012 ft | 474 kts | 37° |
| 2026-04-29 20:22 | -24.59628 | -44.68704 | 37012 ft | 474 kts | 37° |
| 2026-04-29 20:23 | -24.55006 | -44.63536 | 37015 ft | 474 kts | 37° |
| 2026-04-29 20:23 | -24.50336 | -44.58448 | 37011 ft | 467 kts | 31° |
| 2026-04-29 20:24 | -24.47732 | -44.56403 | 37013 ft | 454 kts | 21° |
| 2026-04-29 20:24 | -24.44957 | -44.54796 | 37017 ft | 449 kts | 18° |
| 2026-04-29 20:24 | -24.39391 | -44.51684 | 37012 ft | 449 kts | 18° |
| 2026-04-29 20:25 | -24.33852 | -44.48593 | 36491 ft | 449 kts | 18° |
| 2026-04-29 20:25 | -24.31075 | -44.47039 | 35946 ft | 447 kts | 18° |
| 2026-04-29 20:25 | -24.28315 | -44.45492 | 35411 ft | 445 kts | 18° |
| 2026-04-29 20:26 | -24.25568 | -44.43951 | 34881 ft | 442 kts | 18° |
| 2026-04-29 20:26 | -24.22832 | -44.42420 | 34342 ft | 441 kts | 18° |
| 2026-04-29 20:26 | -24.20095 | -44.40893 | 33765 ft | 440 kts | 18° |
| 2026-04-29 20:26 | -24.17372 | -44.39375 | 33219 ft | 438 kts | 19° |
| 2026-04-29 20:27 | -24.14665 | -44.37864 | 32686 ft | 435 kts | 19° |
| 2026-04-29 20:27 | -24.12843 | -44.36850 | 32330 ft | 434 kts | 19° |
| 2026-04-29 20:27 | -24.09290 | -44.34875 | 31630 ft | 431 kts | 19° |
| 2026-04-29 20:27 | -24.06625 | -44.33392 | 31114 ft | 429 kts | 19° |
| 2026-04-29 20:28 | -24.03971 | -44.31915 | 30609 ft | 427 kts | 19° |
| 2026-04-29 20:28 | -24.01328 | -44.30443 | 30103 ft | 425 kts | 19° |
| 2026-04-29 20:28 | -23.98698 | -44.28978 | 29559 ft | 423 kts | 20° |
| 2026-04-29 20:28 | -23.96091 | -44.27527 | 29082 ft | 418 kts | 19° |
| 2026-04-29 20:29 | -23.93514 | -44.26074 | 28610 ft | 416 kts | 23° |
| 2026-04-29 20:29 | -23.91144 | -44.24231 | 28143 ft | 423 kts | 36° |
| 2026-04-29 20:29 | -23.89152 | -44.21836 | 27707 ft | 429 kts | 49° |
| 2026-04-29 20:29 | -23.87647 | -44.19010 | 27306 ft | 432 kts | 59° |
| 2026-04-29 20:30 | -23.86366 | -44.16102 | 26897 ft | 428 kts | 59° |
| 2026-04-29 20:30 | -23.85077 | -44.13183 | 26487 ft | 424 kts | 58° |
| 2026-04-29 20:30 | -23.83797 | -44.10303 | 26086 ft | 420 kts | 57° |
| 2026-04-29 20:30 | -23.82228 | -44.07685 | 25692 ft | 404 kts | 42° |
| 2026-04-29 20:31 | -23.80212 | -44.05641 | 25310 ft | 388 kts | 28° |
| 2026-04-29 20:31 | -23.77923 | -44.04223 | 24952 ft | 372 kts | 14° |
| 2026-04-29 20:31 | -23.75501 | -44.03425 | 24614 ft | 357 kts | 2° |
| 2026-04-29 20:31 | -23.73066 | -44.03176 | 24282 ft | 349 kts | 356° |
| 2026-04-29 20:32 | -23.70643 | -44.03030 | 23947 ft | 347 kts | 356° |
| 2026-04-29 20:32 | -23.68205 | -44.02877 | 23617 ft | 345 kts | 356° |
| 2026-04-29 20:32 | -23.65816 | -44.02724 | 23251 ft | 343 kts | 356° |
| 2026-04-29 20:32 | -23.64239 | -44.02623 | 23036 ft | 342 kts | 357° |
| 2026-04-29 20:33 | -23.61103 | -44.02423 | 22606 ft | 340 kts | 357° |
| 2026-04-29 20:33 | -23.58741 | -44.02273 | 22278 ft | 339 kts | 357° |
| 2026-04-29 20:33 | -23.56395 | -44.02122 | 21967 ft | 338 kts | 357° |
| 2026-04-29 20:33 | -23.54049 | -44.01971 | 21692 ft | 337 kts | 358° |
| 2026-04-29 20:34 | -23.51716 | -44.01822 | 21420 ft | 335 kts | 358° |
| 2026-04-29 20:34 | -23.49391 | -44.01676 | 21143 ft | 334 kts | 358° |
| 2026-04-29 20:34 | -23.47076 | -44.01530 | 20987 ft | 333 kts | 358° |
| 2026-04-29 20:34 | -23.44760 | -44.01385 | 20532 ft | 336 kts | 358° |
| 2026-04-29 20:35 | -23.42413 | -44.01240 | 20114 ft | 335 kts | 358° |
| 2026-04-29 20:35 | -23.40106 | -44.01092 | 19813 ft | 331 kts | 358° |
| 2026-04-29 20:35 | -23.37814 | -44.00943 | 19483 ft | 328 kts | 358° |
| 2026-04-29 20:35 | -23.35545 | -44.00794 | 19155 ft | 326 kts | 358° |
| 2026-04-29 20:36 | -23.33288 | -44.00648 | 18825 ft | 324 kts | 359° |
| 2026-04-29 20:36 | -23.31042 | -44.00507 | 18502 ft | 323 kts | 359° |
| 2026-04-29 20:36 | -23.28804 | -44.00367 | 18158 ft | 321 kts | 359° |
| 2026-04-29 20:36 | -23.26576 | -44.00228 | 17816 ft | 320 kts | 359° |
| 2026-04-29 20:37 | -23.24356 | -44.00088 | 17490 ft | 319 kts | 359° |
| 2026-04-29 20:37 | -23.22143 | -43.99950 | 17165 ft | 318 kts | 359° |
| 2026-04-29 20:37 | -23.19938 | -43.99813 | 16841 ft | 317 kts | 359° |
| 2026-04-29 20:37 | -23.17742 | -43.99677 | 16527 ft | 316 kts | 360° |
| 2026-04-29 20:38 | -23.15549 | -43.99539 | 16205 ft | 315 kts | 0° |
| 2026-04-29 20:38 | -23.13365 | -43.99402 | 15890 ft | 314 kts | 0° |
| 2026-04-29 20:38 | -23.11187 | -43.99265 | 15564 ft | 313 kts | 0° |
| 2026-04-29 20:38 | -23.09015 | -43.99128 | 15257 ft | 312 kts | 0° |
| 2026-04-29 20:39 | -23.06857 | -43.98991 | 14942 ft | 311 kts | 1° |
| 2026-04-29 20:39 | -23.04698 | -43.98858 | 14628 ft | 310 kts | 1° |
| 2026-04-29 20:39 | -23.02549 | -43.98725 | 14311 ft | 309 kts | 1° |
| 2026-04-29 20:39 | -23.00403 | -43.98592 | 14002 ft | 308 kts | 1° |
| 2026-04-29 20:40 | -22.98262 | -43.98459 | 13677 ft | 307 kts | 1° |
| 2026-04-29 20:40 | -22.96133 | -43.98287 | 13340 ft | 307 kts | 8° |
| 2026-04-29 20:40 | -22.94111 | -43.97572 | 13036 ft | 307 kts | 26° |
| 2026-04-29 20:40 | -22.92393 | -43.96196 | 12717 ft | 309 kts | 44° |
| 2026-04-29 20:41 | -22.91153 | -43.94291 | 12398 ft | 311 kts | 62° |
| 2026-04-29 20:41 | -22.90218 | -43.92174 | 12088 ft | 311 kts | 62° |
| 2026-04-29 20:41 | -22.89284 | -43.90068 | 11767 ft | 309 kts | 62° |
| 2026-04-29 20:41 | -22.88360 | -43.88000 | 11466 ft | 307 kts | 62° |
| 2026-04-29 20:42 | -22.87431 | -43.85924 | 11149 ft | 306 kts | 62° |
| 2026-04-29 20:42 | -22.86493 | -43.83828 | 10828 ft | 304 kts | 63° |
| 2026-04-29 20:42 | -22.85573 | -43.81773 | 10516 ft | 302 kts | 63° |
| 2026-04-29 20:42 | -22.84656 | -43.79729 | 10209 ft | 300 kts | 63° |
| 2026-04-29 20:43 | -22.84052 | -43.78384 | 10013 ft | 298 kts | 63° |
| 2026-04-29 20:43 | -22.82856 | -43.75721 | 9588 ft | 295 kts | 64° |
| 2026-04-29 20:43 | -22.81965 | -43.73727 | 9283 ft | 293 kts | 64° |
| 2026-04-29 20:43 | -22.81127 | -43.71722 | 9050 ft | 291 kts | 71° |
| 2026-04-29 20:44 | -22.80606 | -43.69602 | 8827 ft | 294 kts | 76° |
| 2026-04-29 20:44 | -22.80273 | -43.68144 | 8448 ft | 293 kts | 75° |
| 2026-04-29 20:44 | -22.79625 | -43.65363 | 7951 ft | 281 kts | 75° |
| 2026-04-29 20:44 | -22.79153 | -43.63355 | 7649 ft | 269 kts | 75° |
| 2026-04-29 20:45 | -22.78738 | -43.61586 | 7372 ft | 260 kts | 75° |
| 2026-04-29 20:45 | -22.78300 | -43.59718 | 7066 ft | 251 kts | 75° |
| 2026-04-29 20:45 | -22.78013 | -43.58494 | 6868 ft | 245 kts | 75° |
| 2026-04-29 20:45 | -22.77606 | -43.56757 | 6567 ft | 237 kts | 75° |
| 2026-04-29 20:46 | -22.77071 | -43.55070 | 6236 ft | 233 kts | 65° |
| 2026-04-29 20:46 | -22.76443 | -43.53505 | 5899 ft | 226 kts | 65° |
| 2026-04-29 20:46 | -22.75832 | -43.51965 | 5569 ft | 219 kts | 65° |
| 2026-04-29 20:46 | -22.75245 | -43.50474 | 5254 ft | 212 kts | 65° |
| 2026-04-29 20:47 | -22.74671 | -43.49016 | 4949 ft | 209 kts | 65° |
| 2026-04-29 20:47 | -22.74106 | -43.47585 | 4645 ft | 206 kts | 65° |
| 2026-04-29 20:47 | -22.73539 | -43.46155 | 4276 ft | 207 kts | 65° |
| 2026-04-29 20:47 | -22.72969 | -43.44716 | 3915 ft | 208 kts | 66° |
| 2026-04-29 20:48 | -22.72405 | -43.43295 | 3593 ft | 202 kts | 66° |
| 2026-04-29 20:48 | -22.71882 | -43.41907 | 3229 ft | 197 kts | 75° |
| 2026-04-29 20:48 | -22.71956 | -43.40476 | 2901 ft | 190 kts | 113° |
| 2026-04-29 20:48 | -22.72654 | -43.39316 | 2728 ft | 180 kts | 124° |
| 2026-04-29 20:49 | -22.73369 | -43.38240 | 2548 ft | 173 kts | 124° |
| 2026-04-29 20:49 | -22.74059 | -43.37204 | 2374 ft | 167 kts | 124° |
| 2026-04-29 20:49 | -22.74729 | -43.36197 | 2185 ft | 162 kts | 125° |
| 2026-04-29 20:49 | -22.75374 | -43.35230 | 2020 ft | 156 kts | 124° |
| 2026-04-29 20:50 | -22.75994 | -43.34297 | 1810 ft | 149 kts | 124° |
| 2026-04-29 20:50 | -22.76593 | -43.33396 | 1623 ft | 147 kts | 125° |
| 2026-04-29 20:50 | -22.77180 | -43.32510 | 1433 ft | 145 kts | 125° |
| 2026-04-29 20:50 | -22.77667 | -43.31774 | 1284 ft | 146 kts | 125° |
| 2026-04-29 20:51 | -22.78256 | -43.30885 | 1092 ft | 144 kts | 125° |
| 2026-04-29 20:51 | -22.78839 | -43.30003 | 901 ft | 144 kts | 126° |
| 2026-04-29 20:51 | -22.79417 | -43.29129 | 714 ft | 142 kts | 124° |
| 2026-04-29 20:51 | -22.79992 | -43.28260 | 535 ft | 142 kts | 127° |
| 2026-04-29 20:52 | -22.80562 | -43.27397 | 326 ft | 141 kts | 126° |
| 2026-04-29 20:52 | -22.81125 | -43.26537 | 153 ft | 140 kts | 126° |
| 2026-04-29 20:52 | -22.81685 | -43.25698 | 26 ft | 128 kts | 126° |
| 2026-04-29 20:52 | -22.82074 | -43.25118 | 26 ft | 55 kts | 126° |
| 2026-04-29 20:53 | -22.82252 | -43.24851 | 21 ft | 40 kts | 126° |
| 2026-04-29 20:53 | -22.82341 | -43.24706 | 19 ft | 21 kts | 115° |
| 2026-04-29 20:53 | -22.82362 | -43.24551 | 19 ft | 22 kts | 93° |
| 2026-04-29 20:53 | -22.82350 | -43.24440 | 21 ft | 7 kts | 19° |
| 2026-04-29 20:54 | -22.82271 | -43.24543 | 20 ft | 13 kts | 306° |
| 2026-04-29 20:54 | -22.82209 | -43.24637 | 19 ft | 18 kts | 305° |
| 2026-04-29 20:54 | -22.82133 | -43.24751 | 21 ft | 18 kts | 305° |
| 2026-04-29 20:55 | -22.82069 | -43.24847 | 24 ft | 15 kts | 306° |
| 2026-04-29 20:55 | -22.82012 | -43.24933 | 24 ft | 13 kts | 306° |
| 2026-04-29 20:55 | -22.81960 | -43.25012 | 24 ft | 12 kts | 305° |
| 2026-04-29 20:55 | -22.81915 | -43.25081 | 25 ft | 10 kts | 306° |
| 2026-04-29 20:56 | -22.81869 | -43.25150 | 26 ft | 15 kts | 306° |
| 2026-04-29 20:56 | -22.81798 | -43.25254 | 24 ft | 16 kts | 316° |
| 2026-04-29 20:56 | -22.81735 | -43.25234 | 24 ft | 11 kts | 40° |
| 2026-04-29 20:56 | -22.81649 | -43.25165 | 22 ft | 20 kts | 34° |
| 2026-04-29 20:57 | -22.81536 | -43.25080 | 22 ft | 18 kts | 34° |
| 2026-04-29 20:57 | -22.81485 | -43.25002 | 22 ft | 12 kts | 103° |
| 2026-04-29 20:57 | -22.81476 | -43.24912 | 22 ft | 13 kts | 87° |
| 2026-04-29 20:57 | -22.81463 | -43.24850 | 22 ft | 7 kts | 71° |
| 2026-04-29 20:58 | -22.81454 | -43.24820 | 23 ft | 0 kts | 72° |